Time;durP1;ratioP1;P1;durP2;ratioP2;P2;SDS_P1;SDS_P2;PMS_P1;PMS_P2;Temp;Humidity;BMP_temperature;BMP_pressure;BME280_temperature;BME280_humidity;BME280_pressure;Samples;Min_cycle;Max_cycle;Signal;HPM_P1;HPM_P2
2022/08/17 00:00:59;;;;;;;4.95;3.10;;;20.10;99.90;;;;;;5054890;28;20021;-76
2022/08/17 00:03:30;;;;;;;5.32;3.60;;;20.00;99.90;;;;;;5054632;28;20032;-76
2022/08/17 00:05:59;;;;;;;4.68;2.90;;;20.00;99.90;;;;;;5053129;28;20063;-76
2022/08/17 00:08:34;;;;;;;6.07;2.95;;;19.90;99.90;;;;;;5056039;28;20059;-76
2022/08/17 00:11:01;;;;;;;5.07;3.25;;;19.90;99.90;;;;;;5057875;28;20040;-76
2022/08/17 00:13:39;;;;;;;4.40;3.10;;;19.90;99.90;;;;;;5058538;28;20071;-76
2022/08/17 00:16:15;;;;;;;3.92;2.92;;;19.90;99.90;;;;;;5062140;28;20032;-76
2022/08/17 00:18:41;;;;;;;3.42;2.85;;;19.90;99.90;;;;;;5056480;28;20079;-76
2022/08/17 00:21:09;;;;;;;4.57;3.20;;;19.90;99.90;;;;;;5059272;28;20181;-76
2022/08/17 00:23:34;;;;;;;5.22;3.30;;;19.80;99.90;;;;;;5061071;28;20029;-76
2022/08/17 00:26:00;;;;;;;4.28;3.33;;;19.80;99.90;;;;;;5063043;28;20016;-76
2022/08/17 00:28:26;;;;;;;4.07;3.03;;;19.80;99.90;;;;;;5062134;28;20166;-76
2022/08/17 00:30:52;;;;;;;5.22;3.40;;;19.80;99.90;;;;;;5060198;28;20174;-77
2022/08/17 00:33:21;;;;;;;6.38;3.15;;;19.80;99.90;;;;;;5054509;28;20466;-76
2022/08/17 00:35:48;;;;;;;4.13;3.30;;;19.70;99.90;;;;;;5057864;28;20034;-76
2022/08/17 00:38:14;;;;;;;4.85;3.20;;;19.70;99.90;;;;;;5058642;28;20051;-76
2022/08/17 00:40:50;;;;;;;5.70;3.30;;;19.70;99.90;;;;;;5061409;28;20028;-76
2022/08/17 00:43:40;;;;;;;3.95;2.63;;;19.60;99.90;;;;;;5063961;28;20024;-76
2022/08/17 00:46:12;;;;;;;5.95;2.85;;;19.60;99.90;;;;;;5062047;28;20361;-76
2022/08/17 00:48:38;;;;;;;;;;;19.60;99.90;;;;;;5062088;28;20077;-76
2022/08/17 00:51:41;;;;;;;4.85;3.00;;;19.50;99.90;;;;;;5062687;28;19912;-76
2022/08/17 00:54:21;;;;;;;6.00;2.90;;;19.50;99.90;;;;;;5055552;28;20020;-76
2022/08/17 00:56:52;;;;;;;4.53;3.15;;;19.40;99.90;;;;;;5059131;28;20029;-76
2022/08/17 00:59:20;;;;;;;5.07;3.60;;;19.40;99.90;;;;;;5061140;28;20388;-77
2022/08/17 01:01:48;;;;;;;5.40;3.30;;;19.40;99.90;;;;;;5052282;28;20020;-77
2022/08/17 01:04:15;;;;;;;5.35;3.15;;;19.40;99.90;;;;;;5049952;28;20072;-76
2022/08/17 01:06:41;;;;;;;5.18;3.90;;;19.40;99.90;;;;;;5058026;28;20127;-76
2022/08/17 01:09:07;;;;;;;4.30;3.10;;;19.30;99.90;;;;;;5061586;28;20040;-76
2022/08/17 01:11:35;;;;;;;5.45;2.72;;;19.40;99.90;;;;;;5058749;28;20111;-76
2022/08/17 01:14:01;;;;;;;4.28;3.03;;;19.40;99.90;;;;;;5059983;28;20016;-76
2022/08/17 01:16:29;;;;;;;4.10;3.10;;;19.30;99.90;;;;;;5059485;28;20044;-76
2022/08/17 01:18:59;;;;;;;5.22;3.22;;;19.30;99.90;;;;;;5061376;28;20039;-76
2022/08/17 01:21:44;;;;;;;4.43;3.15;;;19.40;99.90;;;;;;5061108;28;20391;-76
2022/08/17 01:24:10;;;;;;;5.18;3.40;;;19.40;99.90;;;;;;5062189;28;20044;-76
2022/08/17 01:26:38;;;;;;;4.95;3.17;;;19.30;99.90;;;;;;5057202;28;20484;-77
2022/08/17 01:29:05;;;;;;;5.45;3.22;;;19.30;99.90;;;;;;5060837;28;20040;-76
2022/08/17 01:31:44;;;;;;;3.83;2.83;;;19.30;99.90;;;;;;5060242;28;20026;-77
2022/08/17 01:34:12;;;;;;;6.25;3.33;;;19.20;99.90;;;;;;5055981;28;20029;-77
2022/08/17 01:36:40;;;;;;;3.88;2.58;;;19.20;99.90;;;;;;5056484;28;20119;-76
2022/08/17 01:39:10;;;;;;;4.65;3.13;;;19.20;99.90;;;;;;5054464;28;20574;-77
2022/08/17 01:41:39;;;;;;;5.40;3.45;;;19.20;99.90;;;;;;5054075;28;20066;-76
2022/08/17 01:44:06;;;;;;;7.25;3.78;;;19.20;99.90;;;;;;5059179;28;20025;-77
2022/08/17 01:46:35;;;;;;;4.70;3.10;;;19.20;99.90;;;;;;5055729;28;20035;-76
2022/08/17 01:49:05;;;;;;;4.88;2.88;;;19.10;99.90;;;;;;5061383;28;20024;-77
2022/08/17 01:51:31;;;;;;;3.97;2.70;;;19.00;99.90;;;;;;5055985;28;20451;-77
2022/08/17 01:54:00;;;;;;;5.00;3.30;;;19.10;99.90;;;;;;5059785;28;20085;-76
2022/08/17 01:56:28;;;;;;;3.88;3.03;;;19.00;99.90;;;;;;5057162;28;20410;-76
2022/08/17 01:58:54;;;;;;;5.07;3.13;;;19.00;99.90;;;;;;5058710;28;20639;-76
2022/08/17 02:01:29;;;;;;;3.70;2.80;;;19.00;99.90;;;;;;5060159;28;20073;-77
2022/08/17 02:03:56;;;;;;;3.88;2.97;;;19.00;99.90;;;;;;5056814;28;20025;-76
2022/08/17 02:06:21;;;;;;;4.05;2.90;;;19.00;99.90;;;;;;5055134;28;20060;-76
2022/08/17 02:08:48;;;;;;;4.88;3.58;;;19.00;99.90;;;;;;5053905;28;20085;-76
2022/08/17 02:11:17;;;;;;;4.22;2.90;;;18.90;99.90;;;;;;5053931;28;20169;-77
2022/08/17 02:13:45;;;;;;;5.07;2.75;;;18.90;99.90;;;;;;5057697;28;20534;-76
2022/08/17 02:16:11;;;;;;;4.43;2.88;;;18.90;99.90;;;;;;5059056;28;20040;-76
2022/08/17 02:18:36;;;;;;;5.22;3.30;;;18.80;99.90;;;;;;5058447;28;20051;-77
2022/08/17 02:21:03;;;;;;;4.55;3.10;;;18.80;99.90;;;;;;5059139;28;20468;-76
2022/08/17 02:23:31;;;;;;;4.30;3.15;;;18.90;99.90;;;;;;5060870;28;20043;-77
2022/08/17 02:25:59;;;;;;;4.15;2.72;;;18.90;99.90;;;;;;5052510;28;20088;-77
2022/08/17 02:28:24;;;;;;;4.75;2.80;;;18.90;99.90;;;;;;5059595;28;20028;-77
2022/08/17 02:30:50;;;;;;;5.10;3.28;;;18.90;99.90;;;;;;5058018;28;20128;-77
2022/08/17 02:33:16;;;;;;;4.47;3.15;;;18.80;99.90;;;;;;5058071;28;20029;-76
2022/08/17 02:35:41;;;;;;;3.95;2.88;;;18.80;99.90;;;;;;5060254;28;20047;-77
2022/08/17 02:38:08;;;;;;;4.03;3.17;;;18.80;99.90;;;;;;5054176;28;20032;-77
2022/08/17 02:40:34;;;;;;;3.95;3.15;;;18.80;99.90;;;;;;5055844;28;20020;-77
2022/08/17 02:42:59;;;;;;;4.95;3.25;;;18.70;99.90;;;;;;5057110;28;20636;-76
2022/08/17 02:45:25;;;;;;;4.65;3.28;;;18.60;99.90;;;;;;5047030;28;20042;-77
2022/08/17 02:47:51;;;;;;;5.78;3.50;;;18.60;99.90;;;;;;5053984;28;20444;-77
2022/08/17 02:50:20;;;;;;;3.42;2.80;;;18.60;99.90;;;;;;5058440;28;20545;-77
2022/08/17 02:52:46;;;;;;;6.63;2.80;;;18.60;99.90;;;;;;5059905;28;20029;-76
2022/08/17 02:55:17;;;;;;;4.93;3.40;;;18.60;99.90;;;;;;5059516;28;20082;-76
2022/08/17 02:57:43;;;;;;;4.15;2.72;;;18.60;99.90;;;;;;5060564;28;20060;-76
2022/08/17 03:00:14;;;;;;;6.18;3.65;;;18.60;99.90;;;;;;5056768;28;20501;-77
2022/08/17 03:02:41;;;;;;;;;;;18.60;99.90;;;;;;5058961;28;20025;-76
2022/08/17 03:05:08;;;;;;;3.78;2.80;;;18.60;99.90;;;;;;5055182;28;19912;-77
2022/08/17 03:07:34;;;;;;;5.13;3.15;;;18.60;99.90;;;;;;5054063;28;20067;-77
2022/08/17 03:09:59;;;;;;;4.07;2.55;;;18.50;99.90;;;;;;5053303;28;20052;-76
2022/08/17 03:12:31;;;;;;;5.70;3.40;;;18.50;99.90;;;;;;5058204;28;20027;-76
2022/08/17 03:14:56;;;;;;;5.30;3.22;;;18.50;99.90;;;;;;5053379;28;20056;-77
2022/08/17 03:17:22;;;;;;;4.70;3.38;;;18.40;99.90;;;;;;5040710;28;20022;-77
2022/08/17 03:19:47;;;;;;;5.35;3.13;;;18.40;99.90;;;;;;5041798;28;20169;-76
2022/08/17 03:22:13;;;;;;;6.82;3.17;;;18.40;99.90;;;;;;5064517;28;20024;-76
2022/08/17 03:24:38;;;;;;;5.03;3.15;;;18.40;99.90;;;;;;5061776;28;20059;-76
2022/08/17 03:27:04;;;;;;;4.78;3.13;;;18.40;99.90;;;;;;5063230;28;20036;-77
2022/08/17 03:29:29;;;;;;;4.75;3.08;;;18.40;99.90;;;;;;5063212;28;20039;-76
2022/08/17 03:31:55;;;;;;;4.75;3.17;;;18.40;99.90;;;;;;5061612;28;20040;-77
2022/08/17 03:34:20;;;;;;;3.85;2.85;;;18.40;99.90;;;;;;5062316;28;20032;-77
2022/08/17 03:36:46;;;;;;;4.15;2.65;;;18.30;99.90;;;;;;5064014;28;20477;-76
2022/08/17 03:39:21;;;;;;;6.18;3.47;;;18.30;99.90;;;;;;5058840;28;20029;-77
2022/08/17 03:41:46;;;;;;;4.05;2.97;;;18.30;99.90;;;;;;5055775;28;20055;-77
2022/08/17 03:44:12;;;;;;;3.58;3.13;;;18.30;99.90;;;;;;5060782;28;20471;-77
2022/08/17 03:57:34;;;;;;;3.15;2.58;;;18.30;99.90;;;;;;5059077;28;20051;-80
2022/08/17 03:59:59;;;;;;;3.30;2.85;;;18.40;99.90;;;;;;5062420;28;20017;-80
2022/08/17 04:02:31;;;;;;;5.97;3.22;;;18.40;99.90;;;;;;5064381;28;20024;-80
2022/08/17 04:04:57;;;;;;;4.43;3.13;;;18.40;99.90;;;;;;5058259;28;20024;-79
2022/08/17 04:07:26;;;;;;;5.38;3.42;;;18.40;99.90;;;;;;5060402;28;20140;-81
2022/08/17 04:09:52;;;;;;;6.55;3.08;;;18.40;99.90;;;;;;5058365;28;20051;-79
2022/08/17 04:12:20;;;;;;;4.00;3.15;;;18.40;99.90;;;;;;5061673;28;20472;-79
2022/08/17 04:14:46;;;;;;;4.78;3.17;;;18.40;99.90;;;;;;5062614;28;20028;-80
2022/08/17 04:17:12;;;;;;;5.65;3.00;;;18.40;99.90;;;;;;5064106;28;20111;-92
2022/08/17 04:19:37;;;;;;;4.40;2.90;;;18.40;99.90;;;;;;5065839;28;20032;-92
2022/08/17 04:22:04;;;;;;;3.75;2.85;;;18.40;99.90;;;;;;5064220;28;20017;-90
2022/08/17 04:24:31;;;;;;;5.57;3.03;;;18.40;99.90;;;;;;5060464;28;20227;-90
2022/08/17 04:26:56;;;;;;;4.85;2.92;;;18.40;99.90;;;;;;5064319;28;20025;-90
2022/08/17 04:29:24;;;;;;;5.20;3.47;;;18.40;99.90;;;;;;5065447;28;20032;-89
2022/08/17 04:31:50;;;;;;;4.40;3.20;;;18.50;99.90;;;;;;5064650;28;20029;-90
2022/08/17 04:34:16;;;;;;;4.72;3.13;;;18.50;99.90;;;;;;5059010;28;20542;-91
2022/08/17 04:36:42;;;;;;;3.92;2.58;;;18.60;99.90;;;;;;5062246;28;20024;-90
2022/08/17 04:39:08;;;;;;;5.20;3.47;;;18.60;99.90;;;;;;5057761;28;20024;-90
2022/08/17 04:44:17;;;;;;;5.25;3.20;;;18.60;99.90;;;;;;5059257;28;20167;-90
2022/08/17 04:46:43;;;;;;;3.35;2.78;;;18.70;99.90;;;;;;5061681;28;20116;-90
2022/08/17 04:49:10;;;;;;;3.47;2.78;;;18.70;99.90;;;;;;5060451;28;20032;-90
2022/08/17 04:51:42;;;;;;;5.22;3.28;;;18.70;99.90;;;;;;5063018;28;20226;-90
2022/08/17 04:54:11;;;;;;;5.07;3.25;;;18.80;99.90;;;;;;5060015;28;20102;-91
2022/08/17 04:56:38;;;;;;;5.75;3.40;;;18.80;99.90;;;;;;5058290;28;20495;-91
2022/08/17 04:59:14;;;;;;;5.32;3.20;;;18.90;99.90;;;;;;5060160;28;20079;-91
2022/08/17 05:01:41;;;;;;;4.78;3.30;;;18.90;99.90;;;;;;5060699;28;20537;-90
2022/08/17 05:04:10;;;;;;;4.43;2.97;;;18.90;99.90;;;;;;5063966;28;20024;-92
2022/08/17 05:06:36;;;;;;;4.88;3.03;;;19.00;99.90;;;;;;5057837;28;20045;-91
2022/08/17 05:09:03;;;;;;;4.20;3.00;;;19.00;99.90;;;;;;5068406;28;20032;-91
2022/08/17 05:11:29;;;;;;;4.65;3.15;;;19.00;99.90;;;;;;5059823;28;20021;-91
2022/08/17 05:13:55;;;;;;;4.00;3.13;;;19.10;99.90;;;;;;5062112;28;20078;-92
2022/08/17 05:16:23;;;;;;;4.47;3.55;;;19.10;99.90;;;;;;5063469;28;20051;-91
2022/08/17 05:18:48;;;;;;;6.35;3.60;;;19.20;99.90;;;;;;5065422;28;20043;-91
2022/08/17 05:21:14;;;;;;;3.80;2.78;;;19.20;99.90;;;;;;5047140;28;20415;-91
2022/08/17 05:23:41;;;;;;;6.20;2.80;;;19.20;99.90;;;;;;5061768;28;20020;-90
2022/08/17 05:26:07;;;;;;;3.58;3.00;;;19.30;99.90;;;;;;5066244;28;20028;-92
2022/08/17 05:28:33;;;;;;;6.70;3.67;;;19.30;99.90;;;;;;5045470;28;20048;-92
2022/08/17 05:31:00;;;;;;;3.88;2.78;;;19.40;99.90;;;;;;5057936;28;20025;-93
2022/08/17 05:33:36;;;;;;;8.63;3.38;;;19.40;99.90;;;;;;5061789;28;20032;-91
2022/08/17 05:36:04;;;;;;;3.58;2.70;;;19.50;99.90;;;;;;5058896;28;20109;-92
2022/08/17 05:38:30;;;;;;;5.82;3.75;;;19.60;99.90;;;;;;5063244;28;20032;-92
2022/08/17 05:40:57;;;;;;;6.70;3.28;;;19.60;99.90;;;;;;5058586;28;20025;-92
2022/08/17 05:43:26;;;;;;;4.82;3.10;;;19.70;99.90;;;;;;5065050;28;20024;-88
2022/08/17 05:46:11;;;;;;;4.90;3.58;;;19.80;99.90;;;;;;5059838;28;20024;-84
2022/08/17 05:48:42;;;;;;;3.78;3.00;;;19.80;99.90;;;;;;5061990;28;20044;-85
2022/08/17 05:51:25;;;;;;;5.85;3.47;;;19.90;99.90;;;;;;5063212;28;20193;-85
2022/08/17 05:54:01;;;;;;;5.55;3.53;;;19.90;99.90;;;;;;5057746;28;20032;-86
2022/08/17 05:56:42;;;;;;;5.00;3.88;;;20.00;99.90;;;;;;5056619;28;20070;-82
2022/08/17 05:59:18;;;;;;;6.13;3.83;;;20.10;99.90;;;;;;5058135;28;20020;-83
2022/08/17 06:02:18;;;;;;;6.38;3.83;;;20.10;99.90;;;;;;5056310;28;20032;-81
2022/08/17 06:05:15;;;;;;;5.05;3.63;;;20.20;99.90;;;;;;5054661;28;20119;-80
2022/08/17 06:07:51;;;;;;;5.90;3.67;;;20.30;99.90;;;;;;5053244;28;20044;-83
2022/08/17 06:10:29;;;;;;;5.22;3.50;;;20.30;99.90;;;;;;5054525;28;20025;-89
2022/08/17 06:13:17;;;;;;;8.13;3.92;;;20.40;99.90;;;;;;5054257;28;20054;-84
2022/08/17 06:16:00;;;;;;;6.15;3.90;;;20.50;99.90;;;;;;5061622;28;20040;-84
2022/08/17 06:18:34;;;;;;;4.13;3.20;;;20.60;99.90;;;;;;5062511;28;20027;-85
2022/08/17 06:21:10;;;;;;;5.60;3.90;;;20.70;99.90;;;;;;5056988;28;20051;-85
2022/08/17 06:23:40;;;;;;;6.47;4.15;;;20.80;99.90;;;;;;5054598;28;20107;-84
2022/08/17 06:26:26;;;;;;;4.75;3.60;;;21.00;99.90;;;;;;5053855;28;20107;-83
2022/08/17 06:29:15;;;;;;;9.55;4.10;;;21.10;99.90;;;;;;5056221;28;20051;-85
2022/08/17 06:31:41;;;;;;;5.65;4.05;;;21.20;99.90;;;;;;5056094;28;20059;-84
2022/08/17 06:34:11;;;;;;;8.32;5.00;;;21.30;99.90;;;;;;5064556;28;20071;-83
2022/08/17 06:36:52;;;;;;;5.63;3.80;;;21.40;99.90;;;;;;5062591;28;20078;-84
2022/08/17 06:39:48;;;;;;;10.30;3.80;;;21.60;99.90;;;;;;5064420;28;20039;-84
2022/08/17 06:42:39;;;;;;;6.22;3.90;;;21.70;99.90;;;;;;5062545;28;20373;-85
2022/08/17 06:45:13;;;;;;;7.55;4.35;;;21.90;99.90;;;;;;5064448;28;20020;-85
2022/08/17 06:47:47;;;;;;;4.47;2.88;;;22.20;99.90;;;;;;5064620;28;20036;-85
2022/08/17 06:50:37;;;;;;;5.90;3.83;;;22.40;99.90;;;;;;5062613;28;20063;-84
2022/08/17 06:53:16;;;;;;;4.38;3.30;;;22.60;99.90;;;;;;5060883;28;20020;-84
2022/08/17 06:55:50;;;;;;;7.28;3.97;;;22.70;99.90;;;;;;5055749;28;20103;-84
2022/08/17 06:58:21;;;;;;;4.80;3.50;;;22.80;99.90;;;;;;5057382;28;20052;-84
2022/08/17 07:00:48;;;;;;;6.32;3.35;;;22.90;99.90;;;;;;5058834;28;20543;-83
2022/08/17 07:03:36;;;;;;;4.40;3.20;;;23.00;99.90;;;;;;5061404;28;20048;-82
2022/08/17 07:06:18;;;;;;;9.25;3.35;;;23.00;99.90;;;;;;5056750;28;20534;-79
2022/08/17 07:08:54;;;;;;;5.70;3.28;;;23.10;99.90;;;;;;5062226;28;20044;-77
2022/08/17 07:11:26;;;;;;;4.95;3.50;;;23.20;99.90;;;;;;5063772;28;20028;-77
2022/08/17 07:14:02;;;;;;;5.32;3.72;;;23.40;99.90;;;;;;5069733;28;20028;-76
2022/08/17 07:16:39;;;;;;;5.82;3.75;;;23.50;99.90;;;;;;5064114;28;20040;-77
2022/08/17 07:19:06;;;;;;;5.63;3.70;;;23.60;99.90;;;;;;5060000;28;20055;-77
2022/08/17 07:22:16;;;;;;;4.45;3.22;;;23.70;99.90;;;;;;5068789;28;20479;-77
2022/08/17 07:24:50;;;;;;;4.45;3.20;;;23.70;99.90;;;;;;5055788;28;20432;-79
2022/08/17 07:27:23;;;;;;;4.90;3.65;;;23.80;99.90;;;;;;5058984;28;20021;-79
2022/08/17 07:30:06;;;;;;;6.68;3.80;;;23.80;99.90;;;;;;5061790;28;20020;-79
2022/08/17 07:32:43;;;;;;;6.10;3.65;;;23.80;99.90;;;;;;5065546;28;20068;-78
2022/08/17 07:35:14;;;;;;;4.75;3.75;;;23.90;99.90;;;;;;5063165;28;20111;-80
2022/08/17 07:37:43;;;;;;;4.80;3.85;;;24.10;99.90;;;;;;5065228;28;20037;-80
2022/08/17 07:40:22;;;;;;;4.47;3.22;;;24.10;99.90;;;;;;5064295;28;20107;-80
2022/08/17 07:43:09;;;;;;;4.22;2.83;;;24.10;99.90;;;;;;5064526;28;20033;-80
2022/08/17 07:48:24;;;;;;;4.10;2.55;;;24.30;99.80;;;;;;5067385;28;20039;-80
2022/08/17 07:50:52;;;;;;;3.00;2.60;;;24.10;99.90;;;;;;5063511;28;20036;-80
2022/08/17 07:53:22;;;;;;;5.07;3.25;;;24.30;98.40;;;;;;5066123;28;20063;-80
2022/08/17 07:55:49;;;;;;;3.20;2.90;;;24.30;99.30;;;;;;5057078;28;20044;-79
2022/08/17 07:58:20;;;;;;;3.92;2.58;;;24.50;98.80;;;;;;5060283;28;20765;-80
2022/08/17 08:01:03;;;;;;;4.22;3.03;;;24.70;95.00;;;;;;5053910;28;20020;-80
2022/08/17 08:03:30;;;;;;;2.88;2.40;;;24.70;95.60;;;;;;5062578;28;20036;-81
2022/08/17 08:06:00;;;;;;;5.45;3.15;;;24.50;96.80;;;;;;5061196;28;20036;-82
2022/08/17 08:08:31;;;;;;;4.68;2.90;;;24.80;93.50;;;;;;5059408;28;20035;-81
2022/08/17 08:11:30;;;;;;;10.70;3.47;;;25.30;94.10;;;;;;5063966;28;20447;-81
2022/08/17 08:14:21;;;;;;;4.57;2.85;;;25.40;91.50;;;;;;5062149;28;20028;-81
2022/08/17 08:16:57;;;;;;;2.85;2.45;;;25.40;91.70;;;;;;5063880;28;20040;-81
2022/08/17 08:19:24;;;;;;;4.60;2.70;;;25.40;92.70;;;;;;5066630;28;20036;-81
2022/08/17 08:22:09;;;;;;;2.60;2.40;;;25.30;93.00;;;;;;5060413;28;20024;-82
2022/08/17 08:24:54;;;;;;;4.05;2.40;;;25.40;90.70;;;;;;5060500;28;20579;-81
2022/08/17 08:27:25;;;;;;;3.47;2.55;;;25.70;89.40;;;;;;5054792;28;21341;-81
2022/08/17 08:30:05;;;;;;;3.25;2.20;;;25.40;90.70;;;;;;5060144;28;20161;-79
2022/08/17 08:33:01;;;;;;;5.32;2.35;;;25.10;91.00;;;;;;5060879;28;20028;-79
2022/08/17 08:35:38;;;;;;;2.83;2.10;;;25.70;83.10;;;;;;5062708;28;21311;-76
2022/08/17 08:38:26;;;;;;;2.80;2.00;;;26.40;79.40;;;;;;5063158;28;20511;-77
2022/08/17 08:41:31;;;;;;;3.75;2.53;;;26.70;80.50;;;;;;5050466;28;20029;-76
2022/08/17 08:44:13;;;;;;;2.17;1.83;;;26.00;85.10;;;;;;5053201;28;20020;-77
2022/08/17 08:46:49;;;;;;;4.40;2.20;;;25.60;85.90;;;;;;5058878;28;20395;-76
2022/08/17 08:49:33;;;;;;;2.22;2.03;;;26.20;80.50;;;;;;5065924;28;20559;-75
2022/08/17 08:52:01;;;;;;;3.78;2.30;;;26.60;81.20;;;;;;5065210;28;20082;-77
2022/08/17 08:54:49;;;;;;;4.45;2.45;;;25.90;83.90;;;;;;5057144;28;20021;-76
2022/08/17 08:57:31;;;;;;;2.92;2.00;;;25.70;81.50;;;;;;5055383;28;20016;-79
2022/08/17 09:00:13;;;;;;;2.83;2.03;;;25.40;87.40;;;;;;5061140;28;20260;-88
2022/08/17 09:03:05;;;;;;;2.40;2.15;;;24.90;90.30;;;;;;5059053;28;20041;-85
2022/08/17 09:05:56;;;;;;;2.17;1.77;;;25.50;81.10;;;;;;5060703;28;20039;-88
2022/08/17 09:08:35;;;;;;;2.20;1.90;;;26.40;80.80;;;;;;5056885;28;20488;-84
2022/08/17 09:11:09;;;;;;;3.40;1.98;;;26.70;80.60;;;;;;5060335;28;20361;-76
2022/08/17 09:13:43;;;;;;;4.30;2.45;;;26.00;82.60;;;;;;5065097;28;20388;-77
2022/08/17 09:16:19;;;;;;;2.88;2.03;;;25.60;80.20;;;;;;5062061;28;20020;-77
2022/08/17 09:18:50;;;;;;;5.45;2.08;;;25.70;79.30;;;;;;5060270;28;20032;-76
2022/08/17 09:21:37;;;;;;;2.03;1.80;;;26.40;79.20;;;;;;5060172;28;20024;-76
2022/08/17 09:24:17;;;;;;;2.75;1.70;;;26.60;77.40;;;;;;5060051;28;20025;-77
2022/08/17 09:27:02;;;;;;;2.20;2.00;;;27.50;77.00;;;;;;5056356;28;20024;-77
2022/08/17 09:29:35;;;;;;;2.17;1.85;;;27.80;71.40;;;;;;5054972;28;20354;-77
2022/08/17 09:32:13;;;;;;;5.00;2.50;;;27.70;72.10;;;;;;5060247;28;20757;-76
2022/08/17 09:34:47;;;;;;;2.42;2.22;;;27.50;72.20;;;;;;5061124;28;20036;-77
2022/08/17 09:37:32;;;;;;;1.63;1.50;;;28.10;71.40;;;;;;5060809;28;20036;-77
2022/08/17 09:40:12;;;;;;;1.63;1.52;;;27.80;68.70;;;;;;5064486;28;20073;-76
2022/08/17 09:42:47;;;;;;;4.32;2.10;;;27.80;68.60;;;;;;5060807;28;20437;-78
2022/08/17 09:45:49;;;;;;;3.58;2.05;;;27.50;71.50;;;;;;5059235;28;20032;-77
2022/08/17 09:48:32;;;;;;;2.05;1.65;;;27.50;71.20;;;;;;5060481;28;20020;-78
2022/08/17 09:51:29;;;;;;;2.30;1.67;;;27.40;71.30;;;;;;5059630;28;20021;-78
2022/08/17 09:53:56;;;;;;;2.90;1.70;;;26.50;75.00;;;;;;5055005;28;20024;-75
2022/08/17 09:56:33;;;;;;;1.80;1.67;;;26.30;71.90;;;;;;5056454;28;20581;-79
2022/08/17 09:59:19;;;;;;;2.13;1.65;;;26.70;76.10;;;;;;5064272;28;20078;-77
2022/08/17 10:01:53;;;;;;;2.08;1.85;;;26.90;73.00;;;;;;5052073;28;20024;-78
2022/08/17 10:04:31;;;;;;;2.08;1.88;;;26.40;78.00;;;;;;5053391;28;20453;-77
2022/08/17 10:07:05;;;;;;;2.22;1.60;;;25.90;81.00;;;;;;5060456;28;20660;-77
2022/08/17 10:09:58;;;;;;;1.88;1.65;;;25.70;82.50;;;;;;5058118;28;20556;-78
2022/08/17 10:12:37;;;;;;;2.67;2.03;;;25.70;82.80;;;;;;5057979;28;20424;-78
2022/08/17 10:15:21;;;;;;;2.40;1.85;;;25.70;83.00;;;;;;5061164;28;20028;-79
2022/08/17 10:18:06;;;;;;;2.75;1.80;;;25.60;84.50;;;;;;5058162;28;20111;-78
2022/08/17 10:20:48;;;;;;;2.08;1.77;;;26.50;79.50;;;;;;5060854;28;20032;-78
2022/08/17 10:26:24;;;;;;;2.35;1.95;;;26.00;82.40;;;;;;5057249;28;20125;-81
2022/08/17 10:28:59;;;;;;;2.10;1.73;;;27.00;69.90;;;;;;5052987;28;20024;-81
2022/08/17 10:31:33;;;;;;;2.13;1.83;;;27.10;76.00;;;;;;5058191;28;20024;-77
2022/08/17 10:34:17;;;;;;;1.63;1.52;;;26.60;77.50;;;;;;5064046;28;20502;-75
2022/08/17 10:37:19;;;;;;;2.25;1.90;;;26.20;80.30;;;;;;5061438;28;20021;-85
2022/08/17 10:39:53;;;;;;;1.90;1.60;;;26.20;81.10;;;;;;5059724;28;20491;-80
2022/08/17 10:42:35;;;;;;;2.05;1.85;;;25.70;82.80;;;;;;5060539;28;20028;-80
2022/08/17 10:45:06;;;;;;;4.13;1.65;;;25.40;84.70;;;;;;5058825;28;20085;-84
2022/08/17 10:48:02;;;;;;;4.85;1.77;;;25.20;86.30;;;;;;5063298;28;20133;-80
2022/08/17 10:50:48;;;;;;;3.05;1.90;;;25.60;85.40;;;;;;5061350;28;20666;-86
2022/08/17 10:53:31;;;;;;;3.80;2.40;;;25.40;86.70;;;;;;5053616;28;20032;-78
2022/08/17 10:56:20;;;;;;;2.13;1.65;;;25.60;84.80;;;;;;5057193;28;20029;-79
2022/08/17 10:58:49;;;;;;;2.70;1.95;;;25.40;86.60;;;;;;5055597;28;20483;-75
2022/08/17 11:01:37;;;;;;;2.50;1.80;;;26.00;82.80;;;;;;5056244;28;20028;-71
2022/08/17 11:04:21;;;;;;;2.97;2.00;;;26.00;81.10;;;;;;5044200;28;20111;-73
2022/08/17 11:07:05;;;;;;;2.92;1.75;;;25.90;83.70;;;;;;5057617;28;20048;-73
2022/08/17 11:10:27;;;;;;;2.85;2.35;;;26.60;80.70;;;;;;5061621;28;20364;-74
2022/08/17 11:13:02;;;;;;;1.92;1.73;;;26.20;82.20;;;;;;4977223;28;20428;-74
2022/08/17 11:15:48;;;;;;;2.15;1.88;;;26.10;82.00;;;;;;4977204;28;20030;-72
2022/08/17 11:18:49;;;;;;;3.33;1.90;;;25.80;84.50;;;;;;5030941;28;20089;-72
2022/08/17 11:21:39;;;;;;;5.20;1.90;;;26.00;78.00;;;;;;5055712;28;20086;-76
2022/08/17 11:24:13;;;;;;;2.25;2.00;;;26.60;75.00;;;;;;5060962;28;20119;-74
2022/08/17 11:26:45;;;;;;;3.05;2.00;;;28.40;68.10;;;;;;5062021;28;20462;-75
2022/08/17 11:29:22;;;;;;;2.78;2.00;;;28.70;69.50;;;;;;5060959;28;20032;-74
2022/08/17 11:32:06;;;;;;;2.42;1.98;;;29.80;58.50;;;;;;5060025;28;20107;-74
2022/08/17 11:34:33;;;;;;;2.40;1.92;;;31.00;54.10;;;;;;5058331;28;20032;-75
2022/08/17 11:37:08;;;;;;;4.18;2.30;;;31.50;55.20;;;;;;5057693;28;20042;-75
2022/08/17 11:40:10;;;;;;;1.98;1.75;;;29.60;61.60;;;;;;5058192;28;20028;-75
2022/08/17 11:43:02;;;;;;;2.25;1.75;;;27.60;69.90;;;;;;5051324;28;20116;-75
2022/08/17 11:45:48;;;;;;;1.67;1.50;;;27.40;68.50;;;;;;5057429;28;20500;-75
2022/08/17 11:51:32;;;;;;;2.10;1.90;;;29.50;56.30;;;;;;5054924;28;20086;-75
2022/08/17 11:54:03;;;;;;;1.80;1.70;;;31.30;55.30;;;;;;5053217;28;20128;-75
2022/08/17 11:56:39;;;;;;;5.18;2.28;;;30.90;55.90;;;;;;5054206;28;20032;-74
2022/08/17 11:59:44;;;;;;;2.05;1.85;;;28.50;66.50;;;;;;5063043;28;20036;-75
2022/08/17 12:02:26;;;;;;;2.55;1.80;;;26.90;72.80;;;;;;5056754;28;20029;-75
2022/08/17 12:05:13;;;;;;;2.28;1.75;;;27.60;69.90;;;;;;5056136;28;20032;-75
2022/08/17 12:07:45;;;;;;;2.63;1.92;;;27.40;72.60;;;;;;5067737;28;20044;-75
2022/08/17 12:10:16;;;;;;;1.92;1.73;;;27.50;72.70;;;;;;5058371;28;20115;-76
2022/08/17 12:12:42;;;;;;;2.57;2.13;;;27.40;74.20;;;;;;5059637;28;20024;-75
2022/08/17 12:15:16;;;;;;;1.77;1.67;;;27.60;72.70;;;;;;5054890;28;20108;-76
2022/08/17 12:17:50;;;;;;;2.20;1.88;;;27.00;74.20;;;;;;5058009;28;20021;-76
2022/08/17 12:20:26;;;;;;;2.40;1.95;;;27.00;75.40;;;;;;5054117;28;20113;-75
2022/08/17 12:23:08;;;;;;;2.97;1.88;;;26.90;75.60;;;;;;5058174;28;20090;-75
2022/08/17 12:25:58;;;;;;;2.72;2.10;;;26.30;79.20;;;;;;5059816;28;20154;-75
2022/08/17 12:28:33;;;;;;;2.08;1.88;;;26.70;78.10;;;;;;5058838;28;20036;-74
2022/08/17 12:31:02;;;;;;;3.25;2.20;;;26.30;79.10;;;;;;5053325;28;20024;-75
2022/08/17 12:33:28;;;;;;;2.53;1.67;;;26.30;79.20;;;;;;5063106;28;20045;-76
2022/08/17 12:36:01;;;;;;;4.00;2.00;;;25.90;80.50;;;;;;5052471;28;20021;-75
2022/08/17 12:38:28;;;;;;;1.63;1.48;;;25.70;81.70;;;;;;5058889;28;20036;-75
2022/08/17 12:40:56;;;;;;;3.35;1.67;;;26.00;81.70;;;;;;5052900;28;20350;-76
2022/08/17 12:43:26;;;;;;;1.77;1.50;;;26.10;81.00;;;;;;5059808;28;20079;-76
2022/08/17 12:45:59;;;;;;;2.97;1.85;;;26.40;79.80;;;;;;5061503;28;20020;-75
2022/08/17 12:48:27;;;;;;;2.13;1.73;;;26.50;79.20;;;;;;5053298;28;20432;-76
2022/08/17 12:51:00;;;;;;;2.00;1.80;;;26.70;78.70;;;;;;5059483;28;20027;-76
2022/08/17 12:53:29;;;;;;;2.35;1.75;;;26.90;76.40;;;;;;5059969;28;20067;-75
2022/08/17 12:55:56;;;;;;;3.38;1.85;;;26.50;79.20;;;;;;5055412;28;20043;-76
2022/08/17 12:58:25;;;;;;;2.30;1.88;;;26.00;80.90;;;;;;5057887;28;20438;-76
2022/08/17 13:01:12;;;;;;;2.33;1.98;;;25.80;81.40;;;;;;5061425;28;20020;-77
2022/08/17 13:03:42;;;;;;;1.77;1.52;;;26.70;78.00;;;;;;5055830;28;20032;-77
2022/08/17 13:06:11;;;;;;;2.97;2.22;;;26.40;78.80;;;;;;5054124;28;20079;-76
2022/08/17 13:08:43;;;;;;;2.03;1.80;;;26.30;79.90;;;;;;5055950;28;20063;-76
2022/08/17 13:11:16;;;;;;;2.30;1.40;;;26.10;80.90;;;;;;5062346;28;20442;-76
2022/08/17 13:13:50;;;;;;;2.33;1.85;;;26.40;79.70;;;;;;5060282;28;20172;-76
2022/08/17 13:16:19;;;;;;;2.20;2.00;;;27.30;77.00;;;;;;5063359;28;20120;-76
2022/08/17 13:18:48;;;;;;;2.35;1.80;;;28.10;69.10;;;;;;5056176;28;20025;-76
2022/08/17 13:21:25;;;;;;;2.28;1.75;;;29.90;66.40;;;;;;5053251;28;20016;-76
2022/08/17 13:23:58;;;;;;;2.65;2.30;;;29.40;67.50;;;;;;5054064;28;20529;-76
2022/08/17 13:26:37;;;;;;;2.08;1.80;;;29.40;58.80;;;;;;5042911;28;20192;-76
2022/08/17 13:29:22;;;;;;;2.55;1.50;;;28.30;70.10;;;;;;5058455;28;20029;-75
2022/08/17 13:31:49;;;;;;;2.10;1.90;;;26.70;75.50;;;;;;5053759;28;20208;-76
2022/08/17 13:34:17;;;;;;;1.75;1.58;;;26.00;79.80;;;;;;5062289;28;20034;-76
2022/08/17 13:36:43;;;;;;;2.10;1.50;;;26.40;79.30;;;;;;5060631;28;20475;-76
2022/08/17 13:39:18;;;;;;;1.77;1.65;;;26.40;79.10;;;;;;5059238;28;20028;-76
2022/08/17 13:41:46;;;;;;;2.63;1.73;;;26.30;79.50;;;;;;5055372;28;20063;-76
2022/08/17 13:44:30;;;;;;;1.50;1.40;;;26.40;79.60;;;;;;5055266;28;20024;-75
2022/08/17 13:46:58;;;;;;;1.98;1.60;;;26.40;79.80;;;;;;5053725;28;20396;-76